Time;durP1;ratioP1;P1;durP2;ratioP2;P2;SDS_P1;SDS_P2;PMS_P1;PMS_P2;Temp;Humidity;BMP_temperature;BMP_pressure;BME280_temperature;BME280_humidity;BME280_pressure;Samples;Min_cycle;Max_cycle;Signal;HPM_P1;HPM_P2
2024/02/22 00:01:37;;;;;;;2.58;1.60;;;8.60;99.90;;;;;;5052064;28;20056;-74
2024/02/22 00:04:03;;;;;;;3.45;1.88;;;8.50;99.90;;;;;;5061953;28;20036;-74
2024/02/22 00:06:29;;;;;;;3.40;1.67;;;8.50;99.90;;;;;;5041094;28;20075;-74
2024/02/22 00:08:55;;;;;;;2.42;1.40;;;8.60;99.90;;;;;;5048360;28;20788;-74
2024/02/22 00:11:21;;;;;;;2.88;1.73;;;8.50;99.90;;;;;;5068011;28;20400;-73
2024/02/22 00:13:47;;;;;;;2.28;1.77;;;8.60;99.90;;;;;;5014326;28;20044;-73
2024/02/22 00:16:14;;;;;;;1.60;1.40;;;8.60;99.90;;;;;;5047454;28;20059;-74
2024/02/22 00:18:41;;;;;;;0.88;0.88;;;8.60;99.90;;;;;;5056387;28;20227;-74
2024/02/22 00:21:08;;;;;;;1.83;1.48;;;8.60;99.90;;;;;;5047842;28;20052;-74
2024/02/22 00:23:34;;;;;;;2.40;1.40;;;8.60;99.90;;;;;;5041256;28;20157;-73
2024/02/22 00:26:00;;;;;;;1.52;1.42;;;8.70;99.90;;;;;;5065822;28;20139;-73
2024/02/22 00:28:26;;;;;;;2.15;1.10;;;8.60;99.90;;;;;;5048016;28;20495;-74
2024/02/22 00:30:52;;;;;;;0.98;0.98;;;8.60;99.90;;;;;;5041058;28;20157;-74
2024/02/22 00:33:17;;;;;;;1.20;1.20;;;8.60;99.90;;;;;;5060385;28;20051;-74
2024/02/22 00:35:43;;;;;;;0.90;0.90;;;8.70;99.90;;;;;;5064966;28;20043;-74
2024/02/22 00:38:09;;;;;;;0.65;0.65;;;8.70;99.90;;;;;;5050426;28;20126;-74
2024/02/22 00:40:34;;;;;;;0.77;0.77;;;8.70;99.90;;;;;;5037735;28;20457;-74
2024/02/22 00:43:00;;;;;;;1.38;1.27;;;8.80;99.90;;;;;;5049252;28;20460;-73
2024/02/22 00:45:26;;;;;;;1.70;1.60;;;8.70;99.90;;;;;;5049575;28;20108;-73
2024/02/22 00:47:53;;;;;;;1.13;1.02;;;8.70;99.90;;;;;;5047803;28;20144;-73
2024/02/22 00:50:19;;;;;;;1.80;1.70;;;8.70;99.90;;;;;;5065256;28;20425;-74
2024/02/22 00:52:44;;;;;;;1.45;1.35;;;8.80;99.90;;;;;;5047498;28;20044;-74
2024/02/22 00:55:10;;;;;;;1.58;1.48;;;8.80;99.90;;;;;;5063932;28;20056;-73
2024/02/22 00:57:37;;;;;;;1.35;1.27;;;8.80;99.90;;;;;;5039622;28;20071;-74
2024/02/22 01:00:04;;;;;;;1.55;1.45;;;8.80;99.90;;;;;;5066734;28;20049;-73
2024/02/22 01:02:30;;;;;;;1.42;1.40;;;8.90;99.90;;;;;;5052202;28;20045;-74
2024/02/22 01:04:56;;;;;;;0.80;0.80;;;8.80;99.90;;;;;;5061755;28;20056;-74
2024/02/22 01:07:21;;;;;;;3.45;1.50;;;8.80;99.90;;;;;;5033881;28;20048;-74
2024/02/22 01:09:48;;;;;;;1.63;1.50;;;8.80;99.90;;;;;;5063255;28;20044;-74
2024/02/22 01:12:14;;;;;;;3.80;0.80;;;8.90;99.90;;;;;;5045567;28;20045;-74
2024/02/22 01:14:40;;;;;;;1.30;1.30;;;8.80;99.90;;;;;;5043726;28;20405;-74
2024/02/22 01:17:06;;;;;;;1.92;1.80;;;8.90;99.90;;;;;;5056807;28;20044;-74
2024/02/22 01:19:31;;;;;;;3.63;2.03;;;8.80;99.90;;;;;;5051919;28;20135;-74
2024/02/22 01:21:57;;;;;;;1.25;1.25;;;8.90;99.90;;;;;;5045708;28;20428;-74
2024/02/22 01:24:23;;;;;;;3.00;1.95;;;8.80;99.90;;;;;;5039011;28;20059;-74
2024/02/22 01:26:49;;;;;;;2.58;1.52;;;8.90;99.90;;;;;;5048192;28;20498;-75
2024/02/22 01:29:14;;;;;;;4.20;1.90;;;8.90;99.90;;;;;;5065665;28;20113;-75
2024/02/22 01:31:40;;;;;;;2.30;2.10;;;8.90;99.90;;;;;;5059620;28;20426;-74
2024/02/22 01:34:06;;;;;;;2.38;2.28;;;8.90;99.90;;;;;;5062853;28;20132;-74
2024/02/22 01:36:31;;;;;;;2.40;2.22;;;8.90;99.90;;;;;;5061419;28;20055;-75
2024/02/22 01:38:57;;;;;;;2.15;2.05;;;8.90;99.90;;;;;;5065832;28;20483;-75
2024/02/22 01:41:23;;;;;;;1.90;1.80;;;8.90;99.90;;;;;;5058070;28;20039;-75
2024/02/22 01:43:49;;;;;;;1.95;1.85;;;8.90;99.90;;;;;;5066185;28;20496;-74
2024/02/22 01:46:15;;;;;;;2.50;1.90;;;8.90;99.90;;;;;;5058230;28;20052;-75
2024/02/22 01:48:42;;;;;;;3.28;2.08;;;8.90;99.90;;;;;;5052651;28;20058;-74
2024/02/22 01:51:08;;;;;;;2.10;2.00;;;8.90;99.90;;;;;;5051167;28;20047;-75
2024/02/22 01:53:35;;;;;;;6.30;1.83;;;9.00;99.90;;;;;;5045678;28;20040;-74
2024/02/22 01:56:01;;;;;;;3.72;2.17;;;8.90;99.90;;;;;;5028717;28;20538;-75
2024/02/22 01:58:35;;;;;;;1.95;1.85;;;9.00;99.90;;;;;;5066793;28;20055;-75
2024/02/22 02:01:03;;;;;;;1.85;1.75;;;9.00;99.90;;;;;;5048372;28;20072;-75
2024/02/22 02:03:30;;;;;;;5.63;2.20;;;8.90;99.90;;;;;;5052820;28;20049;-75
2024/02/22 02:05:57;;;;;;;2.30;2.10;;;9.00;99.90;;;;;;5050662;28;20051;-75
2024/02/22 02:08:23;;;;;;;2.00;1.90;;;8.90;99.90;;;;;;5063445;28;20040;-75
2024/02/22 02:10:50;;;;;;;2.35;2.25;;;9.00;99.90;;;;;;5036042;28;20049;-74
2024/02/22 02:13:16;;;;;;;8.10;2.33;;;9.00;99.90;;;;;;5042732;28;20646;-75
2024/02/22 02:15:42;;;;;;;2.80;2.60;;;9.00;99.90;;;;;;5063682;28;20384;-75
2024/02/22 02:18:08;;;;;;;2.05;1.95;;;9.00;99.90;;;;;;5054645;28;20067;-75
2024/02/22 02:20:59;;;;;;;2.45;2.25;;;9.00;99.90;;;;;;5040722;28;20426;-75
2024/02/22 02:23:33;;;;;;;4.70;2.10;;;9.10;99.90;;;;;;5050164;28;20088;-74
2024/02/22 02:26:00;;;;;;;4.82;2.10;;;9.10;99.90;;;;;;5064975;28;20382;-75
2024/02/22 02:28:26;;;;;;;2.70;2.50;;;9.00;99.90;;;;;;5040543;28;20484;-75
2024/02/22 02:30:52;;;;;;;3.00;2.58;;;9.10;99.90;;;;;;5040233;28;20044;-74
2024/02/22 02:33:17;;;;;;;3.35;2.35;;;9.00;99.90;;;;;;5058831;28;20315;-74
2024/02/22 02:35:43;;;;;;;2.67;2.45;;;9.10;99.90;;;;;;5063302;28;20056;-74
2024/02/22 02:38:13;;;;;;;3.00;2.70;;;9.10;99.90;;;;;;5046726;28;20044;-75
2024/02/22 02:40:39;;;;;;;;;;;9.00;99.90;;;;;;5051845;28;20472;-74
2024/02/22 02:43:05;;;;;;;2.75;2.55;;;9.00;99.90;;;;;;5046387;28;20429;-74
2024/02/22 02:45:31;;;;;;;3.50;3.30;;;9.10;99.90;;;;;;5070333;28;20123;-74
2024/02/22 02:47:56;;;;;;;6.68;2.70;;;9.10;99.90;;;;;;5062701;28;20069;-74
2024/02/22 02:50:22;;;;;;;4.38;2.85;;;9.10;99.90;;;;;;5064781;28;20126;-74
2024/02/22 02:52:48;;;;;;;3.50;3.20;;;9.10;99.90;;;;;;5039601;28;20044;-74
2024/02/22 02:55:14;;;;;;;9.07;3.10;;;9.10;99.90;;;;;;5064070;28;20044;-74
2024/02/22 02:57:41;;;;;;;2.97;2.63;;;9.10;99.90;;;;;;5041396;28;20044;-74
2024/02/22 03:00:12;;;;;;;3.97;3.65;;;9.10;99.90;;;;;;5047607;28;20521;-74
2024/02/22 03:02:40;;;;;;;4.75;3.38;;;9.10;99.90;;;;;;5061481;28;20567;-74
2024/02/22 03:05:06;;;;;;;3.72;3.30;;;9.10;99.90;;;;;;5045642;28;20044;-74
2024/02/22 03:07:32;;;;;;;6.47;3.42;;;9.10;99.90;;;;;;5063185;28;20059;-73
2024/02/22 03:09:58;;;;;;;3.65;3.35;;;9.10;99.90;;;;;;5063011;28;20040;-74
2024/02/22 03:12:23;;;;;;;3.60;3.30;;;9.10;99.90;;;;;;5047560;28;20048;-74
2024/02/22 03:14:50;;;;;;;3.58;3.28;;;9.10;99.90;;;;;;5035662;28;20093;-74
2024/02/22 03:17:21;;;;;;;4.05;3.35;;;9.10;99.90;;;;;;5057500;28;20532;-74
2024/02/22 03:19:47;;;;;;;6.25;3.88;;;9.20;99.90;;;;;;5043641;28;20105;-73
2024/02/22 03:22:14;;;;;;;9.43;4.22;;;9.20;99.90;;;;;;5053524;28;20048;-74
2024/02/22 03:24:39;;;;;;;4.10;3.70;;;9.10;99.90;;;;;;5059078;28;20036;-74
2024/02/22 03:27:10;;;;;;;7.75;4.38;;;9.20;99.90;;;;;;5055671;28;20414;-74
2024/02/22 03:29:41;;;;;;;7.03;4.22;;;9.10;99.90;;;;;;5037187;28;20044;-74
2024/02/22 03:32:07;;;;;;;10.80;4.57;;;9.10;99.90;;;;;;5058320;28;20395;-74
2024/02/22 03:34:34;;;;;;;7.07;4.25;;;9.20;99.90;;;;;;5059255;28;20295;-74
2024/02/22 03:37:00;;;;;;;8.52;4.82;;;9.10;99.90;;;;;;5043406;28;20502;-74
2024/02/22 03:39:27;;;;;;;5.78;4.30;;;9.10;99.90;;;;;;5060486;28;20059;-74
2024/02/22 03:41:53;;;;;;;7.70;4.40;;;9.20;99.90;;;;;;5046315;28;20089;-74
2024/02/22 03:44:19;;;;;;;10.73;5.25;;;9.30;99.90;;;;;;5066387;28;20044;-74
2024/02/22 03:46:46;;;;;;;8.10;5.03;;;9.20;99.90;;;;;;5031307;28;20040;-74
2024/02/22 03:49:12;;;;;;;12.82;5.40;;;9.20;99.90;;;;;;5038800;28;20167;-74
2024/02/22 03:51:38;;;;;;;9.43;5.20;;;9.20;99.90;;;;;;5055390;28;20048;-74
2024/02/22 03:54:04;;;;;;;8.45;4.95;;;9.30;99.90;;;;;;5056049;28;20063;-74
2024/02/22 03:56:31;;;;;;;11.00;5.65;;;9.20;99.90;;;;;;5043821;28;20060;-74
2024/02/22 03:58:57;;;;;;;18.13;6.75;;;9.30;99.90;;;;;;5052486;28;20040;-74
2024/02/22 04:01:22;;;;;;;19.25;7.10;;;9.30;99.90;;;;;;5055349;28;20099;-74
2024/02/22 04:03:48;;;;;;;17.17;7.10;;;9.20;99.90;;;;;;5050752;28;20040;-74
2024/02/22 04:06:14;;;;;;;25.02;7.82;;;9.20;99.90;;;;;;5059733;28;20132;-74
2024/02/22 04:08:39;;;;;;;17.92;6.63;;;9.30;99.90;;;;;;5051080;28;20106;-74
2024/02/22 04:11:05;;;;;;;22.90;7.93;;;9.20;99.90;;;;;;5045895;28;20514;-74
2024/02/22 04:13:31;;;;;;;17.27;6.93;;;9.30;99.90;;;;;;5047151;28;20467;-74
2024/02/22 04:15:57;;;;;;;24.77;7.78;;;9.30;99.90;;;;;;5064949;28;20098;-73
2024/02/22 04:18:22;;;;;;;30.27;8.43;;;9.30;99.90;;;;;;5060119;28;20047;-74
2024/02/22 04:20:48;;;;;;;26.45;7.90;;;9.30;99.90;;;;;;5048508;28;20108;-74
2024/02/22 04:23:14;;;;;;;34.80;8.88;;;9.30;99.90;;;;;;5051259;28;20046;-73
2024/02/22 04:25:41;;;;;;;43.15;9.07;;;9.40;99.90;;;;;;5044547;28;20086;-73
2024/02/22 04:28:06;;;;;;;47.95;10.70;;;9.40;99.90;;;;;;5051252;28;20132;-74
2024/02/22 04:30:32;;;;;;;47.65;10.90;;;9.30;99.90;;;;;;5053228;28;20578;-74
2024/02/22 04:32:58;;;;;;;56.97;9.60;;;9.40;99.90;;;;;;5061350;28;20045;-74
2024/02/22 04:35:24;;;;;;;62.40;10.73;;;9.30;99.90;;;;;;5038537;28;20047;-74
2024/02/22 04:37:50;;;;;;;31.70;7.50;;;9.30;99.90;;;;;;5046724;28;20400;-74
2024/02/22 04:40:16;;;;;;;60.28;10.98;;;9.30;99.90;;;;;;5047172;28;20084;-74
2024/02/22 04:42:41;;;;;;;66.93;11.93;;;9.30;99.90;;;;;;5049240;28;20110;-74
2024/02/22 04:45:08;;;;;;;53.35;10.88;;;9.30;99.90;;;;;;5060356;28;20604;-73
2024/02/22 04:47:36;;;;;;;66.18;11.50;;;9.30;99.90;;;;;;5041720;28;20179;-73
2024/02/22 04:50:06;;;;;;;55.22;9.50;;;9.40;99.90;;;;;;5064691;28;20048;-73
2024/02/22 04:52:31;;;;;;;49.27;10.17;;;9.30;99.90;;;;;;5053793;28;20061;-74
2024/02/22 04:54:59;;;;;;;52.30;9.35;;;9.40;99.90;;;;;;5019541;28;20152;-74
2024/02/22 04:57:26;;;;;;;50.53;9.80;;;9.30;99.90;;;;;;5053912;28;20175;-74
2024/02/22 04:59:52;;;;;;;65.97;10.52;;;9.30;99.90;;;;;;5055489;28;20089;-74
2024/02/22 05:02:19;;;;;;;65.55;11.30;;;9.30;99.90;;;;;;5052967;28;20060;-74
2024/02/22 05:04:46;;;;;;;57.17;9.60;;;9.30;99.90;;;;;;5046415;28;20098;-74
2024/02/22 05:07:11;;;;;;;40.55;8.43;;;9.30;99.90;;;;;;5046313;28;20074;-74
2024/02/22 05:09:38;;;;;;;65.70;10.30;;;9.40;99.90;;;;;;5061682;28;20044;-74
2024/02/22 05:12:04;;;;;;;70.88;10.10;;;9.30;99.90;;;;;;5059135;28;20139;-74
2024/02/22 05:14:30;;;;;;;36.10;7.95;;;9.30;99.90;;;;;;5060189;28;20201;-74
2024/02/22 05:16:55;;;;;;;47.58;8.65;;;9.40;99.90;;;;;;5060700;28;20510;-75
2024/02/22 05:19:21;;;;;;;33.47;7.45;;;9.40;99.90;;;;;;5056854;28;20515;-74
2024/02/22 05:21:51;;;;;;;36.17;7.15;;;9.40;99.90;;;;;;5038535;28;20402;-74
2024/02/22 05:24:17;;;;;;;47.33;8.38;;;9.30;99.90;;;;;;5036383;28;20040;-74
2024/02/22 05:26:44;;;;;;;52.53;8.50;;;9.30;99.90;;;;;;5046383;28;20101;-74
2024/02/22 05:29:09;;;;;;;54.78;8.55;;;9.30;99.90;;;;;;5053587;28;20498;-74
2024/02/22 05:31:35;;;;;;;58.53;9.00;;;9.30;99.90;;;;;;5051193;28;20036;-75
2024/02/22 05:34:01;;;;;;;64.18;9.07;;;9.30;99.90;;;;;;5055343;28;20044;-74
2024/02/22 05:36:27;;;;;;;46.13;8.07;;;9.30;99.90;;;;;;5063593;28;20056;-75
2024/02/22 05:38:53;;;;;;;42.53;7.97;;;9.30;99.90;;;;;;5064383;28;20044;-75
2024/02/22 05:41:18;;;;;;;39.70;7.28;;;9.30;99.90;;;;;;5054414;28;20052;-74
2024/02/22 05:43:45;;;;;;;39.60;7.28;;;9.40;99.90;;;;;;5047063;28;20658;-75
2024/02/22 05:46:11;;;;;;;48.15;7.63;;;9.30;99.90;;;;;;5028619;28;20216;-74
2024/02/22 05:48:36;;;;;;;40.05;7.25;;;9.30;99.90;;;;;;5040098;28;20136;-74
2024/02/22 05:51:03;;;;;;;34.08;6.13;;;9.30;99.90;;;;;;5034952;28;20059;-74
2024/02/22 05:53:29;;;;;;;33.45;6.65;;;9.30;99.90;;;;;;5019554;28;20802;-74
2024/02/22 05:55:55;;;;;;;45.03;7.68;;;9.30;99.90;;;;;;5059090;28;20053;-74
2024/02/22 05:58:20;;;;;;;26.42;6.28;;;9.30;99.90;;;;;;5029681;28;20047;-74
2024/02/22 06:00:46;;;;;;;29.13;6.43;;;9.30;99.90;;;;;;5045197;28;20403;-74
2024/02/22 06:03:12;;;;;;;32.90;6.72;;;9.30;99.90;;;;;;5044134;28;20040;-74
2024/02/22 06:05:38;;;;;;;75.20;8.27;;;9.40;99.90;;;;;;5058926;28;20059;-74
2024/02/22 06:08:04;;;;;;;53.50;7.32;;;9.30;99.90;;;;;;5049633;28;20081;-74
2024/02/22 06:10:30;;;;;;;26.25;5.95;;;9.30;99.90;;;;;;5035294;28;20044;-74
2024/02/22 06:12:56;;;;;;;31.65;6.05;;;9.40;99.90;;;;;;5051358;28;20522;-73
2024/02/22 06:15:22;;;;;;;26.73;5.68;;;9.30;99.90;;;;;;5048431;28;20084;-74
2024/02/22 06:17:49;;;;;;;27.15;6.10;;;9.30;99.90;;;;;;5060898;28;20163;-74
2024/02/22 06:20:16;;;;;;;23.42;6.05;;;9.40;99.90;;;;;;5069567;28;20044;-74
2024/02/22 06:22:41;;;;;;;24.58;5.40;;;9.30;99.90;;;;;;5066892;28;20124;-74
2024/02/22 06:25:09;;;;;;;21.88;5.35;;;9.40;99.90;;;;;;5039297;28;20131;-73
2024/02/22 06:27:35;;;;;;;23.42;4.63;;;9.40;99.90;;;;;;5044864;28;20574;-74
2024/02/22 06:30:04;;;;;;;22.23;5.45;;;9.30;99.90;;;;;;5051581;28;20040;-73
2024/02/22 06:32:30;;;;;;;47.70;6.50;;;9.40;99.90;;;;;;5043070;28;20044;-74
2024/02/22 06:34:56;;;;;;;32.15;5.63;;;9.30;99.90;;;;;;5055490;28;20418;-73
2024/02/22 06:37:22;;;;;;;17.50;4.60;;;9.30;99.90;;;;;;5050857;28;20227;-73
2024/02/22 06:39:47;;;;;;;19.38;5.43;;;9.30;99.90;;;;;;5031571;28;20052;-73
2024/02/22 06:42:13;;;;;;;17.25;4.75;;;9.40;99.90;;;;;;5055565;28;20055;-74
2024/02/22 06:44:39;;;;;;;11.63;3.70;;;9.40;99.90;;;;;;5058409;28;20070;-74
2024/02/22 06:47:05;;;;;;;13.90;4.03;;;9.40;99.90;;;;;;5035487;28;20078;-74
2024/02/22 06:49:33;;;;;;;9.98;3.60;;;9.40;99.90;;;;;;5042371;28;20414;-74
2024/02/22 06:51:59;;;;;;;2.75;1.98;;;9.40;99.90;;;;;;5062205;28;20398;-74
2024/02/22 06:54:25;;;;;;;12.43;3.97;;;9.40;99.90;;;;;;5037802;28;20048;-74
2024/02/22 06:56:51;;;;;;;9.30;3.53;;;9.50;99.90;;;;;;5028626;28;20049;-74
2024/02/22 06:59:17;;;;;;;16.58;4.30;;;9.40;99.90;;;;;;5048662;28;20059;-74
2024/02/22 07:01:43;;;;;;;6.65;3.20;;;9.50;99.90;;;;;;5036775;28;20048;-74
2024/02/22 07:04:12;;;;;;;5.45;3.13;;;9.50;99.90;;;;;;5036639;28;20168;-74
2024/02/22 07:06:38;;;;;;;6.43;3.83;;;9.50;99.90;;;;;;5040317;28;20064;-74
2024/02/22 07:09:04;;;;;;;6.65;3.65;;;9.50;99.90;;;;;;5052943;28;20093;-74
2024/02/22 07:11:30;;;;;;;8.10;4.65;;;9.60;99.90;;;;;;5051282;28;20048;-74
2024/02/22 07:13:57;;;;;;;9.50;4.35;;;9.60;99.90;;;;;;5039569;28;20054;-74
2024/02/22 07:16:23;;;;;;;16.75;5.95;;;9.60;99.90;;;;;;5026637;28;20434;-74
2024/02/22 07:18:49;;;;;;;10.43;5.00;;;9.60;99.90;;;;;;5033423;28;20045;-74
2024/02/22 07:21:15;;;;;;;16.52;6.22;;;9.70;99.90;;;;;;5062861;28;20047;-74
2024/02/22 07:23:42;;;;;;;12.05;5.90;;;9.60;99.90;;;;;;5054187;28;20045;-74
2024/02/22 07:26:09;;;;;;;12.10;5.00;;;9.70;99.90;;;;;;5058404;28;20049;-74
2024/02/22 07:28:36;;;;;;;22.02;7.13;;;9.70;99.90;;;;;;5050794;28;20263;-74
2024/02/22 07:31:05;;;;;;;27.77;7.25;;;9.70;99.90;;;;;;5050199;28;20096;-74
2024/02/22 07:33:31;;;;;;;22.10;6.80;;;9.80;99.90;;;;;;5063414;28;20159;-74
2024/02/22 07:35:57;;;;;;;23.27;7.00;;;9.70;99.90;;;;;;5058097;28;20128;-74
2024/02/22 07:38:24;;;;;;;17.25;6.90;;;9.70;99.90;;;;;;5046582;28;20059;-74
2024/02/22 07:40:51;;;;;;;19.75;7.68;;;9.70;99.90;;;;;;5044773;28;20059;-74
2024/02/22 07:43:17;;;;;;;26.50;7.00;;;9.70;99.90;;;;;;5062910;28;20051;-74
2024/02/22 07:45:42;;;;;;;28.63;8.15;;;9.70;99.90;;;;;;5040395;28;20057;-74
2024/02/22 07:48:09;;;;;;;29.92;7.80;;;9.70;99.90;;;;;;5046787;28;20068;-74
2024/02/22 07:50:35;;;;;;;27.08;7.78;;;9.60;99.90;;;;;;5055422;28;20513;-74
2024/02/22 07:53:01;;;;;;;27.13;7.60;;;9.60;99.90;;;;;;5063197;28;20368;-74
2024/02/22 07:55:27;;;;;;;45.88;7.72;;;9.60;99.90;;;;;;5050486;28;20134;-74
2024/02/22 07:57:53;;;;;;;49.30;9.10;;;9.60;99.90;;;;;;5053563;28;20045;-74
2024/02/22 08:00:19;;;;;;;40.20;7.75;;;9.60;99.90;;;;;;5030544;28;20055;-73
2024/02/22 08:02:45;;;;;;;54.42;10.23;;;9.60;99.90;;;;;;5053331;28;20517;-74
2024/02/22 08:05:11;;;;;;;49.70;9.48;;;9.50;99.90;;;;;;5060597;28;20048;-74
2024/02/22 08:07:38;;;;;;;50.70;8.63;;;9.60;99.90;;;;;;5072355;28;20052;-73
2024/02/22 08:10:05;;;;;;;46.28;8.43;;;9.60;99.90;;;;;;5031098;28;20078;-73
2024/02/22 08:12:32;;;;;;;42.33;7.78;;;9.60;99.90;;;;;;5054139;28;20064;-74
2024/02/22 08:14:58;;;;;;;46.00;7.72;;;9.60;99.90;;;;;;5038064;28;20048;-73
2024/02/22 08:17:24;;;;;;;34.83;6.10;;;9.70;99.90;;;;;;5024836;28;20052;-74
2024/02/22 08:19:50;;;;;;;44.20;6.05;;;9.70;99.90;;;;;;5049365;28;20087;-73
2024/02/22 08:22:16;;;;;;;50.47;5.65;;;9.70;99.90;;;;;;5052418;28;20072;-73
2024/02/22 08:24:42;;;;;;;42.45;4.88;;;9.70;99.90;;;;;;5056600;28;20056;-73
2024/02/22 08:27:10;;;;;;;43.70;4.63;;;9.60;99.90;;;;;;5039751;28;20048;-73
2024/02/22 08:29:36;;;;;;;38.25;5.00;;;9.60;99.90;;;;;;5050761;28;20131;-73
2024/02/22 08:32:04;;;;;;;42.67;4.85;;;9.50;99.90;;;;;;5051257;28;20149;-73
2024/02/22 08:34:30;;;;;;;41.95;5.63;;;9.50;99.90;;;;;;5060332;28;20506;-73
2024/02/22 08:36:56;;;;;;;48.70;4.40;;;9.60;99.90;;;;;;5058663;28;20127;-73
2024/02/22 08:39:22;;;;;;;32.60;3.35;;;9.70;99.90;;;;;;5036909;28;20162;-73
2024/02/22 08:41:48;;;;;;;38.50;3.20;;;9.80;99.90;;;;;;5033548;28;20074;-74
2024/02/22 08:44:14;;;;;;;32.97;4.22;;;9.90;99.90;;;;;;5054108;28;20056;-73
2024/02/22 08:46:39;;;;;;;36.33;3.63;;;9.90;99.90;;;;;;5047026;28;20533;-73
2024/02/22 08:49:05;;;;;;;29.15;3.60;;;10.00;99.90;;;;;;5053235;28;20044;-73
2024/02/22 08:51:31;;;;;;;46.53;4.50;;;10.10;99.90;;;;;;5031794;28;20049;-73
2024/02/22 08:53:58;;;;;;;36.30;3.75;;;10.10;99.90;;;;;;5032771;28;20045;-73
2024/02/22 08:56:23;;;;;;;29.40;3.72;;;10.20;99.90;;;;;;5056095;28;20064;-73
2024/02/22 08:58:49;;;;;;;35.67;4.57;;;10.30;99.90;;;;;;5060368;28;20059;-73
2024/02/22 09:01:18;;;;;;;31.98;3.80;;;10.30;99.90;;;;;;5052530;28;20109;-73
2024/02/22 09:03:44;;;;;;;39.72;3.88;;;10.30;99.90;;;;;;5041987;28;20052;-73
2024/02/22 09:06:10;;;;;;;32.13;4.88;;;10.40;99.90;;;;;;5029871;28;20047;-72
2024/02/22 09:08:39;;;;;;;46.47;4.18;;;10.30;99.90;;;;;;5050272;28;20604;-72
2024/02/22 09:11:05;;;;;;;32.72;4.07;;;10.20;99.90;;;;;;5059305;28;20120;-73
2024/02/22 09:13:31;;;;;;;32.10;3.50;;;10.10;99.90;;;;;;5037756;28;20082;-72
2024/02/22 09:15:57;;;;;;;30.98;3.60;;;10.10;99.90;;;;;;5036380;28;20061;-72
2024/02/22 09:18:23;;;;;;;29.50;3.97;;;10.10;99.90;;;;;;5046237;28;20047;-72
2024/02/22 09:20:49;;;;;;;18.05;2.25;;;10.20;99.90;;;;;;5052583;28;20040;-72
2024/02/22 09:23:16;;;;;;;39.70;4.53;;;10.30;99.90;;;;;;5033648;28;20056;-72
2024/02/22 09:25:43;;;;;;;35.35;4.88;;;10.20;99.90;;;;;;5059061;28;20530;-73
2024/02/22 09:28:10;;;;;;;43.75;5.40;;;10.30;99.90;;;;;;5044124;28;20080;-72
2024/02/22 09:30:36;;;;;;;41.83;4.35;;;10.30;99.90;;;;;;5046494;28;20047;-72
2024/02/22 09:33:03;;;;;;;34.25;4.68;;;10.40;99.90;;;;;;5054366;28;20053;-72
2024/02/22 09:35:29;;;;;;;41.13;5.13;;;10.40;99.90;;;;;;5059329;28;20091;-72
2024/02/22 09:37:55;;;;;;;34.60;4.68;;;10.50;99.90;;;;;;5052071;28;20049;-72
2024/02/22 09:40:21;;;;;;;39.58;4.43;;;10.50;99.90;;;;;;5062159;28;20110;-72
2024/02/22 09:42:48;;;;;;;38.60;5.93;;;10.60;99.90;;;;;;5048720;28;20209;-72
2024/02/22 09:45:17;;;;;;;28.35;4.70;;;10.60;99.90;;;;;;5052975;28;20052;-71
2024/02/22 09:47:45;;;;;;;35.08;4.80;;;10.70;99.90;;;;;;5046279;28;20048;-72
2024/02/22 09:50:11;;;;;;;40.70;5.47;;;10.80;99.90;;;;;;5056051;28;20049;-71
2024/02/22 09:52:37;;;;;;;49.70;5.93;;;10.90;99.90;;;;;;5047070;28;20074;-72
2024/02/22 09:55:04;;;;;;;35.85;4.80;;;11.00;99.90;;;;;;5050830;28;20094;-71
2024/02/22 09:57:30;;;;;;;13.70;3.33;;;11.00;99.90;;;;;;5060511;28;20064;-71
2024/02/22 09:59:57;;;;;;;37.78;5.30;;;11.00;99.90;;;;;;5061825;28;20106;-71
2024/02/22 10:02:23;;;;;;;33.95;4.82;;;10.90;99.90;;;;;;5060841;28;20330;-72
2024/02/22 10:04:56;;;;;;;26.50;4.07;;;10.90;99.90;;;;;;5055503;28;20045;-71
2024/02/22 10:07:26;;;;;;;26.92;5.72;;;10.90;99.90;;;;;;5060396;28;20044;-71
2024/02/22 10:09:53;;;;;;;33.63;4.13;;;10.90;99.90;;;;;;5065901;28;20047;-71
2024/02/22 10:12:26;;;;;;;28.88;4.80;;;11.00;99.90;;;;;;5064611;28;20110;-71
2024/02/22 10:14:52;;;;;;;26.48;3.28;;;11.10;99.90;;;;;;5061210;28;20047;-71
2024/02/22 10:17:29;;;;;;;21.63;4.40;;;11.10;99.90;;;;;;5062861;28;20045;-71
2024/02/22 10:19:55;;;;;;;40.45;5.22;;;11.20;99.90;;;;;;5066171;28;20568;-71
2024/02/22 10:22:22;;;;;;;21.35;4.38;;;11.30;99.90;;;;;;5060338;28;20048;-71
2024/02/22 10:24:48;;;;;;;27.52;4.28;;;11.30;99.90;;;;;;5041866;28;20048;-71
2024/02/22 10:27:14;;;;;;;24.20;4.03;;;11.40;99.90;;;;;;5054177;28;20414;-71
2024/02/22 10:29:40;;;;;;;23.90;2.97;;;11.40;99.90;;;;;;5048603;28;20340;-71
2024/02/22 10:32:07;;;;;;;8.52;2.60;;;11.40;99.90;;;;;;5062224;28;20039;-72
2024/02/22 10:34:33;;;;;;;23.95;4.13;;;11.40;99.90;;;;;;5087876;28;20052;-71
2024/02/22 10:37:04;;;;;;;23.02;4.38;;;11.40;99.90;;;;;;5032492;28;20455;-72
2024/02/22 10:39:31;;;;;;;15.05;3.08;;;11.40;99.90;;;;;;5062009;28;20094;-72
2024/02/22 10:41:59;;;;;;;22.55;4.10;;;11.30;99.90;;;;;;5062566;28;20490;-72
2024/02/22 10:44:25;;;;;;;29.20;4.88;;;11.20;99.90;;;;;;5057060;28;20051;-72
2024/02/22 10:46:51;;;;;;;29.48;4.55;;;11.10;99.90;;;;;;5051574;28;20040;-72
2024/02/22 10:49:18;;;;;;;26.00;5.30;;;10.90;99.90;;;;;;5037047;28;20075;-72
2024/02/22 10:51:46;;;;;;;20.02;4.20;;;10.90;99.90;;;;;;5063776;28;20506;-71
2024/02/22 10:54:12;;;;;;;26.58;5.43;;;10.80;99.90;;;;;;5063605;28;20135;-71
2024/02/22 10:56:43;;;;;;;28.50;5.28;;;10.80;99.90;;;;;;5052006;28;20052;-72
2024/02/22 10:59:13;;;;;;;22.02;4.88;;;10.80;99.90;;;;;;5067476;28;20061;-71
2024/02/22 11:01:41;;;;;;;33.72;5.38;;;10.80;99.90;;;;;;5056655;28;20072;-71
2024/02/22 11:04:09;;;;;;;9.75;3.08;;;10.80;99.90;;;;;;5054655;28;20044;-72
2024/02/22 11:06:38;;;;;;;29.38;6.38;;;10.80;99.90;;;;;;5040326;28;20410;-71
2024/02/22 11:09:17;;;;;;;28.00;5.38;;;10.90;99.90;;;;;;5051198;28;20051;-71
2024/02/22 11:11:43;;;;;;;26.90;6.13;;;10.90;99.90;;;;;;5057692;28;20261;-71
2024/02/22 11:14:09;;;;;;;19.52;4.50;;;11.00;99.90;;;;;;5064788;28;20051;-71
2024/02/22 11:16:40;;;;;;;15.07;4.32;;;11.00;99.90;;;;;;5061587;28;20541;-71
2024/02/22 11:19:12;;;;;;;28.60;6.07;;;11.00;99.90;;;;;;5060438;28;20060;-71
2024/02/22 11:21:39;;;;;;;25.42;5.30;;;11.10;99.90;;;;;;5047537;28;20086;-71
2024/02/22 11:24:09;;;;;;;17.63;5.38;;;11.20;99.90;;;;;;5035501;28;20501;-71
2024/02/22 11:26:36;;;;;;;28.20;6.05;;;11.30;99.90;;;;;;5032037;28;20072;-70
2024/02/22 11:29:02;;;;;;;28.88;6.22;;;11.40;99.90;;;;;;5057880;28;20075;-71
2024/02/22 11:31:28;;;;;;;22.48;5.65;;;11.40;99.90;;;;;;5063939;28;20051;-72
2024/02/22 11:33:59;;;;;;;24.85;6.05;;;11.50;99.90;;;;;;5046218;28;20051;-71
2024/02/22 11:36:26;;;;;;;18.23;4.28;;;11.70;99.90;;;;;;5080974;28;20242;-72
2024/02/22 11:39:06;;;;;;;32.70;6.40;;;11.70;99.90;;;;;;5061399;28;20040;-72
2024/02/22 11:41:32;;;;;;;11.70;4.45;;;11.70;99.90;;;;;;5052734;28;20051;-72
2024/02/22 11:44:03;;;;;;;25.35;5.63;;;11.70;99.90;;;;;;5048809;28;20773;-72
2024/02/22 11:46:36;;;;;;;14.18;4.88;;;11.60;99.90;;;;;;5058987;28;20486;-72
2024/02/22 11:49:04;;;;;;;10.68;3.88;;;11.50;99.90;;;;;;5041369;28;20040;-71
2024/02/22 11:51:30;;;;;;;19.00;4.32;;;11.50;99.90;;;;;;5056803;28;20636;-72
2024/02/22 11:53:58;;;;;;;21.35;5.10;;;11.50;99.90;;;;;;5061484;28;20048;-72
2024/02/22 11:56:25;;;;;;;21.10;5.60;;;11.60;99.90;;;;;;5048336;28;20525;-72
2024/02/22 11:58:51;;;;;;;14.20;4.38;;;11.60;99.90;;;;;;5068930;28;20040;-71
2024/02/22 12:01:18;;;;;;;14.05;5.38;;;11.60;99.90;;;;;;5047361;28;20071;-71
2024/02/22 12:03:46;;;;;;;15.13;5.60;;;11.70;99.90;;;;;;5042411;28;20048;-72
2024/02/22 12:06:14;;;;;;;19.27;5.68;;;11.70;99.90;;;;;;5045849;28;20044;-71
2024/02/22 12:08:44;;;;;;;24.25;5.78;;;11.80;99.90;;;;;;5057417;28;20140;-71
2024/02/22 12:11:11;;;;;;;;;;;11.80;99.90;;;;;;5068382;28;20040;-71
2024/02/22 12:13:37;;;;;;;18.02;5.85;;;11.90;99.90;;;;;;5062825;28;20524;-72
2024/02/22 12:16:07;;;;;;;16.63;6.43;;;11.90;99.90;;;;;;5059697;28;20062;-71
2024/02/22 12:18:33;;;;;;;5.15;2.35;;;11.90;99.90;;;;;;5066818;28;20035;-71
2024/02/22 12:20:59;;;;;;;12.50;4.07;;;11.90;99.90;;;;;;5086121;28;20135;-72
2024/02/22 12:23:26;;;;;;;10.18;4.65;;;12.00;99.90;;;;;;5039787;28;20564;-72
2024/02/22 12:25:53;;;;;;;8.15;4.03;;;12.10;99.90;;;;;;5062126;28;20474;-72
2024/02/22 12:28:19;;;;;;;13.45;5.50;;;12.10;99.90;;;;;;5051348;28;20062;-71
2024/02/22 12:30:45;;;;;;;10.38;5.32;;;12.00;99.90;;;;;;5065266;28;20901;-71
2024/02/22 12:33:24;;;;;;;7.68;4.05;;;12.00;99.90;;;;;;5044426;28;20143;-71
2024/02/22 12:35:50;;;;;;;8.15;4.05;;;12.00;99.90;;;;;;5062810;28;20068;-71
2024/02/22 12:38:17;;;;;;;12.25;3.95;;;12.00;99.90;;;;;;5059755;28;20093;-71
2024/02/22 12:40:44;;;;;;;7.10;3.42;;;12.00;99.90;;;;;;5061857;28;20127;-71
2024/02/22 12:43:14;;;;;;;7.65;3.15;;;11.90;99.90;;;;;;5086597;28;20119;-71
2024/02/22 12:45:39;;;;;;;7.03;3.35;;;11.90;99.90;;;;;;5072183;28;20048;-71